createdAt,value
2023-01-21T00:02:26.425Z,-1.20
2023-01-21T00:04:54.200Z,-1.10
2023-01-21T00:07:22.070Z,-1.00
2023-01-21T00:09:49.878Z,-1.10
2023-01-21T00:12:17.644Z,-1.10
2023-01-21T00:14:45.308Z,-1.20
2023-01-21T00:17:13.006Z,-1.20
2023-01-21T00:19:40.730Z,-1.20
2023-01-21T00:22:08.582Z,-1.20
2023-01-21T00:24:36.400Z,-1.20
2023-01-21T00:27:04.194Z,-1.10
2023-01-21T00:29:31.859Z,-1.00
2023-01-21T00:31:59.813Z,-1.10
2023-01-21T00:34:27.575Z,-1.00
2023-01-21T00:36:56.599Z,-1.00
2023-01-21T00:39:24.521Z,-1.00
2023-01-21T00:41:52.306Z,-0.90
2023-01-21T00:44:20.053Z,-1.00
2023-01-21T00:46:47.849Z,-1.00
2023-01-21T00:49:15.527Z,-0.90
2023-01-21T00:51:43.270Z,-0.90
2023-01-21T00:54:10.950Z,-0.80
2023-01-21T00:56:38.847Z,-0.90
2023-01-21T00:59:06.654Z,-1.00
2023-01-21T01:01:38.037Z,-0.90
2023-01-21T01:04:06.891Z,-1.00
2023-01-21T01:06:35.235Z,-1.00
2023-01-21T01:09:03.161Z,-1.00
2023-01-21T01:11:31.807Z,-1.00
2023-01-21T01:14:00.373Z,-1.00
2023-01-21T01:16:28.114Z,-1.00
2023-01-21T01:18:57.146Z,-1.10
2023-01-21T01:21:25.102Z,-1.10
2023-01-21T01:23:54.848Z,-1.10
2023-01-21T01:26:23.289Z,-1.00
2023-01-21T01:28:51.080Z,-1.00
2023-01-21T01:31:21.621Z,-1.10
2023-01-21T01:33:49.993Z,-1.10
2023-01-21T01:36:25.948Z,-1.00
2023-01-21T01:38:54.872Z,-1.20
2023-01-21T01:41:30.239Z,-1.20
2023-01-21T01:44:27.289Z,-1.30
2023-01-21T01:47:01.975Z,-1.20
2023-01-21T01:49:29.944Z,-1.20
2023-01-21T01:52:07.324Z,-1.10
2023-01-21T01:54:49.041Z,-1.10
2023-01-21T01:57:29.090Z,-1.20
2023-01-21T01:59:58.851Z,-1.20
2023-01-21T02:02:26.618Z,-1.30
2023-01-21T02:05:04.482Z,-1.50
2023-01-21T02:07:41.327Z,-1.50
2023-01-21T02:10:15.633Z,-1.60
2023-01-21T02:12:45.672Z,-1.60
2023-01-21T02:15:13.603Z,-1.70
2023-01-21T02:18:40.696Z,-1.60
2023-01-21T02:21:58.005Z,-1.50
2023-01-21T02:25:43.059Z,-1.60
2023-01-21T02:29:14.501Z,-1.50
2023-01-21T02:33:00.505Z,-1.40
2023-01-21T02:35:46.723Z,-1.60
2023-01-21T02:38:58.390Z,-1.70
2023-01-21T02:41:56.625Z,-1.70
2023-01-21T02:45:15.629Z,-1.70
2023-01-21T02:48:14.027Z,-1.80
2023-01-21T02:50:54.881Z,-1.60
2023-01-21T02:53:33.267Z,-1.70
2023-01-21T02:56:16.207Z,-1.80
2023-01-21T02:59:06.080Z,-1.80
2023-01-21T03:02:42.679Z,-1.70
2023-01-21T03:05:31.180Z,-1.60
2023-01-21T03:08:30.873Z,-1.70
2023-01-21T03:11:17.247Z,-1.80
2023-01-21T03:14:40.628Z,-1.60
2023-01-21T03:17:59.975Z,-1.50
2023-01-21T03:20:46.902Z,-1.30
2023-01-21T03:23:31.007Z,-1.30
2023-01-21T03:26:02.829Z,-1.40
2023-01-21T03:28:39.461Z,-1.50
2023-01-21T03:31:28.963Z,-1.60
2023-01-21T03:34:04.757Z,-1.60
2023-01-21T03:37:05.645Z,-1.50
2023-01-21T03:40:15.669Z,-1.40
2023-01-21T03:42:50.526Z,-1.40
2023-01-21T03:45:55.750Z,-1.40
2023-01-21T03:49:02.937Z,-1.40
2023-01-21T03:51:52.843Z,-1.40
2023-01-21T03:54:21.124Z,-1.50
2023-01-21T03:56:48.805Z,-1.60
2023-01-21T03:59:16.537Z,-1.60
2023-01-21T04:01:44.445Z,-1.70
2023-01-21T04:04:12.227Z,-1.70
2023-01-21T04:06:40.128Z,-1.70
2023-01-21T04:09:09.950Z,-1.70
2023-01-21T04:11:37.709Z,-1.60
2023-01-21T04:14:05.671Z,-1.70
2023-01-21T04:16:33.377Z,-1.60
2023-01-21T04:19:01.197Z,-1.60
2023-01-21T04:21:29.417Z,-1.50
2023-01-21T04:23:57.090Z,-1.60
2023-01-21T04:26:24.927Z,-1.70
2023-01-21T04:28:52.496Z,-1.70
2023-01-21T04:31:20.313Z,-1.70
2023-01-21T04:33:47.937Z,-1.90
2023-01-21T04:36:15.673Z,-2.00
2023-01-21T04:38:43.325Z,-2.10
2023-01-21T04:41:11.038Z,-2.20
2023-01-21T04:43:38.715Z,-2.20
2023-01-21T04:46:06.724Z,-2.40
2023-01-21T04:48:34.595Z,-2.50
2023-01-21T04:51:02.554Z,-2.50
2023-01-21T04:53:30.541Z,-2.50
2023-01-21T04:55:58.380Z,-2.40
2023-01-21T04:58:27.666Z,-2.10
2023-01-21T05:00:58.544Z,-2.20
2023-01-21T05:03:27.909Z,-2.30
2023-01-21T05:05:55.582Z,-2.20
2023-01-21T05:08:23.323Z,-2.20
2023-01-21T05:10:51.243Z,-2.40
2023-01-21T05:13:18.973Z,-2.20
2023-01-21T05:15:46.670Z,-2.30
2023-01-21T05:18:14.442Z,-2.20
2023-01-21T05:20:42.065Z,-2.10
2023-01-21T05:23:09.698Z,-2.10
2023-01-21T05:25:37.256Z,-2.10
2023-01-21T05:28:05.235Z,-2.10
2023-01-21T05:30:32.887Z,-2.10
2023-01-21T05:33:00.489Z,-2.20
2023-01-21T05:35:28.746Z,-2.20
2023-01-21T05:37:57.376Z,-2.20
2023-01-21T05:40:25.945Z,-2.20
2023-01-21T05:42:53.632Z,-2.30
2023-01-21T05:45:21.230Z,-2.30
2023-01-21T05:47:48.918Z,-2.20
2023-01-21T05:50:16.979Z,-2.20
2023-01-21T05:52:44.803Z,-2.10
2023-01-21T05:55:12.349Z,-2.10
2023-01-21T05:57:39.970Z,-2.10
2023-01-21T06:00:09.420Z,-2.00
2023-01-21T06:02:37.175Z,-2.00
2023-01-21T06:05:05.779Z,-2.10
2023-01-21T06:07:33.325Z,-2.10
2023-01-21T06:10:00.987Z,-2.00
2023-01-21T06:12:28.713Z,-2.10
2023-01-21T06:14:56.435Z,-2.10
2023-01-21T06:17:24.126Z,-2.00
2023-01-21T06:19:51.946Z,-2.10
2023-01-21T06:22:21.166Z,-2.10
2023-01-21T06:24:48.899Z,-2.20
2023-01-21T06:27:16.770Z,-2.20
2023-01-21T06:29:44.466Z,-2.10
2023-01-21T06:32:12.287Z,-2.00
2023-01-21T06:34:39.935Z,-2.00
2023-01-21T06:37:07.620Z,-2.00
2023-01-21T06:39:35.615Z,-1.90
2023-01-21T06:42:03.581Z,-1.70
2023-01-21T06:44:31.435Z,-1.80
2023-01-21T06:47:01.173Z,-1.70
2023-01-21T06:49:29.636Z,-1.80
2023-01-21T06:51:57.300Z,-2.00
2023-01-21T06:54:25.112Z,-2.10
2023-01-21T06:56:52.918Z,-2.20
2023-01-21T06:59:20.681Z,-2.30
2023-01-21T07:01:48.617Z,-2.20
2023-01-21T07:04:16.809Z,-2.30
2023-01-21T07:06:44.589Z,-2.10
2023-01-21T07:09:12.319Z,-2.20
2023-01-21T07:11:39.963Z,-2.20
2023-01-21T07:14:07.869Z,-2.10
2023-01-21T07:16:35.863Z,-2.00
2023-01-21T07:19:03.628Z,-2.00
2023-01-21T07:21:31.281Z,-1.90
2023-01-21T07:24:00.636Z,-1.90
2023-01-21T07:26:28.465Z,-2.00
2023-01-21T07:29:01.768Z,-2.10
2023-01-21T07:31:31.396Z,-1.60
2023-01-21T07:33:59.199Z,-1.40
2023-01-21T07:36:27.299Z,-1.40
2023-01-21T07:38:56.008Z,-1.40
2023-01-21T07:41:24.181Z,-1.40
2023-01-21T07:43:52.072Z,-1.40
2023-01-21T07:46:23.167Z,-1.30
2023-01-21T07:48:52.859Z,-1.20
2023-01-21T07:51:23.247Z,-1.10
2023-01-21T07:53:51.123Z,-1.00
2023-01-21T07:56:20.404Z,-1.10
2023-01-21T07:58:48.415Z,-1.10
2023-01-21T08:01:16.196Z,-1.00
2023-01-21T08:03:49.323Z,-1.10
2023-01-21T08:06:17.849Z,-1.10
2023-01-21T08:08:45.508Z,-1.00
2023-01-21T08:11:13.123Z,-0.90
2023-01-21T08:13:41.128Z,-0.90
2023-01-21T08:16:11.785Z,-1.00
2023-01-21T08:18:40.300Z,-0.90
2023-01-21T08:21:08.091Z,-0.80
2023-01-21T08:23:35.956Z,-0.90
2023-01-21T08:26:07.299Z,-0.70
2023-01-21T08:28:35.440Z,-0.60
2023-01-21T08:31:13.501Z,-0.60
2023-01-21T08:33:41.914Z,-0.50
2023-01-21T08:36:10.306Z,-0.40
2023-01-21T08:38:38.511Z,-0.40
2023-01-21T08:41:06.647Z,-0.30
2023-01-21T08:43:34.305Z,-0.30
2023-01-21T08:46:02.127Z,-0.20
2023-01-21T08:48:30.935Z,-0.20
2023-01-21T08:51:02.009Z,-0.30
2023-01-21T08:53:29.749Z,-0.30
2023-01-21T08:56:04.844Z,-0.20
2023-01-21T08:58:33.777Z,-0.20
2023-01-21T09:01:11.109Z,-0.20
2023-01-21T09:03:39.588Z,-0.20
2023-01-21T09:06:08.984Z,-0.10
2023-01-21T09:08:36.981Z,-0.10
2023-01-21T09:11:07.195Z,0.00
2023-01-21T09:13:40.046Z,0.20
2023-01-21T09:16:17.963Z,0.10
2023-01-21T09:18:47.653Z,0.10
2023-01-21T09:21:17.120Z,0.10
2023-01-21T09:23:45.041Z,0.10
2023-01-21T09:26:25.373Z,0.20
2023-01-21T09:29:01.476Z,0.30
2023-01-21T09:31:32.095Z,0.50
2023-01-21T09:34:05.549Z,0.60
2023-01-21T09:36:35.804Z,0.70
2023-01-21T09:39:05.193Z,0.70
2023-01-21T09:41:46.066Z,0.60
2023-01-21T09:44:45.012Z,0.70
2023-01-21T09:47:27.871Z,0.70
2023-01-21T09:50:17.462Z,0.80
2023-01-21T09:53:01.433Z,0.90
2023-01-21T09:55:50.217Z,0.80
2023-01-21T09:58:51.766Z,0.60
2023-01-21T10:01:38.863Z,0.60
2023-01-21T10:04:48.904Z,0.50
2023-01-21T10:07:34.332Z,0.40
2023-01-21T10:10:49.661Z,0.40
2023-01-21T10:14:50.348Z,0.50
2023-01-21T10:17:54.027Z,0.50
2023-01-21T10:20:50.879Z,0.40
2023-01-21T10:23:57.608Z,0.40
2023-01-21T10:26:29.965Z,0.40
2023-01-21T10:28:58.077Z,0.40
2023-01-21T10:31:33.461Z,0.50
2023-01-21T10:34:02.084Z,0.60
2023-01-21T10:37:05.460Z,0.60
2023-01-21T10:39:41.796Z,0.70
2023-01-21T10:43:02.762Z,0.80
2023-01-21T10:46:15.132Z,0.90
2023-01-21T10:48:57.673Z,1.10
2023-01-21T10:52:14.535Z,1.30
2023-01-21T10:55:20.347Z,1.40
2023-01-21T10:58:38.294Z,1.50
2023-01-21T11:01:42.353Z,1.70
2023-01-21T11:04:24.141Z,1.80
2023-01-21T11:07:12.010Z,1.90
2023-01-21T11:09:48.085Z,1.90
2023-01-21T11:12:24.043Z,2.00
2023-01-21T11:15:07.804Z,2.10
2023-01-21T11:17:44.203Z,2.10
2023-01-21T11:20:43.363Z,2.00
2023-01-21T11:23:35.479Z,2.10
2023-01-21T11:26:20.428Z,2.20
2023-01-21T11:28:48.357Z,2.20
2023-01-21T11:31:27.827Z,2.30
2023-01-21T11:34:05.919Z,2.40
2023-01-21T11:36:34.607Z,2.50
2023-01-21T11:39:09.569Z,2.60
2023-01-21T11:41:37.647Z,2.50
2023-01-21T11:44:22.215Z,2.50
2023-01-21T11:46:51.388Z,2.60
2023-01-21T11:49:33.334Z,2.60
2023-01-21T11:52:20.937Z,2.50
2023-01-21T11:54:49.188Z,2.20
2023-01-21T11:57:33.670Z,2.00
2023-01-21T12:00:23.047Z,2.20
2023-01-21T12:03:05.805Z,2.00
2023-01-21T12:05:45.610Z,2.30
2023-01-21T12:08:32.782Z,2.30
2023-01-21T12:11:07.215Z,2.40
2023-01-21T12:14:37.005Z,2.40
2023-01-21T12:17:46.659Z,2.40
2023-01-21T12:20:42.093Z,2.20
2023-01-21T12:23:33.865Z,2.20
2023-01-21T12:26:48.060Z,2.10
2023-01-21T12:30:04.452Z,2.10
2023-01-21T12:33:33.717Z,2.30
2023-01-21T12:36:27.227Z,2.40
2023-01-21T12:39:34.450Z,2.80
2023-01-21T12:42:37.755Z,3.00
2023-01-21T12:45:31.033Z,3.00
2023-01-21T12:48:21.930Z,2.90
2023-01-21T12:51:05.395Z,2.90
2023-01-21T12:54:21.905Z,2.90
2023-01-21T12:57:29.388Z,3.00
2023-01-21T13:00:34.946Z,2.90
2023-01-21T13:04:09.555Z,2.90
2023-01-21T13:06:57.685Z,2.80
2023-01-21T13:10:19.988Z,2.90
2023-01-21T13:13:36.175Z,2.70
2023-01-21T13:16:11.304Z,2.60
2023-01-21T13:18:45.751Z,2.70
2023-01-21T13:22:31.638Z,2.50
2023-01-21T13:25:43.815Z,2.50
2023-01-21T13:28:48.210Z,2.60
2023-01-21T13:31:20.997Z,2.60
2023-01-21T13:35:08.443Z,2.70
2023-01-21T13:38:50.557Z,2.90
2023-01-21T13:42:20.994Z,2.90
2023-01-21T13:45:24.832Z,2.80
2023-01-21T13:48:54.407Z,2.90
2023-01-21T13:52:08.338Z,2.80
2023-01-21T13:55:51.706Z,2.80
2023-01-21T13:59:16.884Z,2.80
2023-01-21T14:02:11.627Z,2.90
2023-01-21T14:05:43.927Z,3.00
2023-01-21T14:09:02.939Z,3.00
2023-01-21T14:11:50.744Z,2.90
2023-01-21T14:14:55.210Z,3.00
2023-01-21T14:18:03.404Z,2.80
2023-01-21T14:21:21.056Z,2.80
2023-01-21T14:24:30.185Z,2.70
2023-01-21T14:27:59.255Z,2.70
2023-01-21T14:30:59.557Z,2.80
2023-01-21T14:34:03.687Z,2.60
2023-01-21T14:37:16.302Z,2.60
2023-01-21T14:40:16.465Z,2.60
2023-01-21T14:42:53.280Z,2.50
2023-01-21T14:45:50.241Z,2.60
2023-01-21T14:49:08.928Z,2.80
2023-01-21T14:51:50.094Z,2.60
2023-01-21T14:54:27.889Z,2.50
2023-01-21T14:57:18.215Z,2.50
2023-01-21T14:59:49.538Z,2.50
2023-01-21T15:02:42.132Z,2.40
2023-01-21T15:05:36.652Z,2.30
2023-01-21T15:08:29.821Z,2.30
2023-01-21T15:11:20.429Z,2.20
2023-01-21T15:14:37.189Z,2.30
2023-01-21T15:17:26.401Z,2.20
2023-01-21T15:19:58.839Z,2.10
2023-01-21T15:22:41.691Z,2.20
2023-01-21T15:25:15.645Z,2.20
2023-01-21T15:28:25.196Z,2.10
2023-01-21T15:31:05.925Z,2.10
2023-01-21T15:33:46.578Z,2.20
2023-01-21T15:36:34.820Z,2.10
2023-01-21T15:39:34.278Z,2.10
2023-01-21T15:42:41.330Z,2.20
2023-01-21T15:45:30.556Z,2.30
2023-01-21T15:48:41.992Z,2.20
2023-01-21T15:52:08.974Z,2.10
2023-01-21T15:55:00.756Z,2.10
2023-01-21T15:58:35.260Z,1.90
2023-01-21T16:01:32.493Z,1.90
2023-01-21T16:04:30.761Z,1.90
2023-01-21T16:07:32.487Z,2.00
2023-01-21T16:10:15.717Z,2.10
2023-01-21T16:13:20.873Z,1.90
2023-01-21T16:16:56.485Z,1.90
2023-01-21T16:19:37.357Z,2.10
2023-01-21T16:22:13.173Z,2.10
2023-01-21T16:24:59.642Z,1.90
2023-01-21T16:27:32.153Z,2.10
2023-01-21T16:30:35.224Z,2.00
2023-01-21T16:33:16.745Z,1.90
2023-01-21T16:36:08.828Z,1.70
2023-01-21T16:38:38.454Z,1.70
2023-01-21T16:41:14.955Z,1.80
2023-01-21T16:44:04.560Z,1.70
2023-01-21T16:46:40.485Z,1.80
2023-01-21T16:49:19.137Z,1.80
2023-01-21T16:52:05.576Z,1.50
2023-01-21T16:54:34.144Z,1.40
2023-01-21T16:57:17.424Z,1.30
2023-01-21T16:59:52.350Z,1.20
2023-01-21T17:02:34.826Z,1.30
2023-01-21T17:05:06.022Z,1.30
2023-01-21T17:08:12.215Z,1.40
2023-01-21T17:11:00.734Z,1.40
2023-01-21T17:13:31.686Z,1.30
2023-01-21T17:16:04.416Z,1.20
2023-01-21T17:18:43.132Z,1.20
2023-01-21T17:21:28.606Z,1.10
2023-01-21T17:24:45.668Z,1.10
2023-01-21T17:27:21.930Z,1.10
2023-01-21T17:29:50.316Z,1.00
2023-01-21T17:32:38.313Z,1.00
2023-01-21T17:35:19.940Z,1.00
2023-01-21T17:37:59.354Z,1.00
2023-01-21T17:41:03.820Z,0.90
2023-01-21T17:43:32.462Z,1.00
2023-01-21T17:46:00.292Z,1.00
2023-01-21T17:48:36.517Z,0.90
2023-01-21T17:51:20.878Z,0.90
2023-01-21T17:54:06.050Z,0.90
2023-01-21T17:56:57.240Z,0.90
2023-01-21T17:59:45.838Z,0.80
2023-01-21T18:02:18.135Z,0.70
2023-01-21T18:04:48.462Z,0.80
2023-01-21T18:07:30.112Z,0.80
2023-01-21T18:10:02.845Z,0.80
2023-01-21T18:12:30.820Z,0.90
2023-01-21T18:14:58.900Z,0.80
2023-01-21T18:17:26.914Z,0.70
2023-01-21T18:19:55.961Z,0.80
2023-01-21T18:22:36.081Z,0.80
2023-01-21T18:25:06.713Z,0.80
2023-01-21T18:27:36.025Z,0.80
2023-01-21T18:30:14.599Z,0.90
2023-01-21T18:32:43.127Z,1.00
2023-01-21T18:35:15.312Z,1.00
2023-01-21T18:37:43.796Z,1.00
2023-01-21T18:40:21.644Z,0.90
2023-01-21T18:42:55.659Z,0.90
2023-01-21T18:45:29.009Z,0.90
2023-01-21T18:47:58.601Z,1.00
2023-01-21T18:50:30.617Z,0.90
2023-01-21T18:52:58.535Z,0.90
2023-01-21T18:55:30.076Z,0.90
2023-01-21T18:57:58.339Z,0.90
2023-01-21T19:00:33.314Z,0.90
2023-01-21T19:03:01.802Z,0.90
2023-01-21T19:05:41.891Z,0.80
2023-01-21T19:08:24.896Z,0.90
2023-01-21T19:10:52.795Z,0.90
2023-01-21T19:13:21.277Z,0.90
2023-01-21T19:15:50.232Z,0.90
2023-01-21T19:18:18.065Z,0.80
2023-01-21T19:20:45.774Z,0.90
2023-01-21T19:23:18.945Z,0.90
2023-01-21T19:25:59.502Z,0.90
2023-01-21T19:28:27.805Z,0.90
2023-01-21T19:30:55.896Z,0.80
2023-01-21T19:33:26.010Z,0.80
2023-01-21T19:36:20.546Z,0.90
2023-01-21T19:38:57.029Z,0.80
2023-01-21T19:41:25.708Z,0.80
2023-01-21T19:43:53.594Z,0.80
2023-01-21T19:46:24.028Z,0.80
2023-01-21T19:48:58.652Z,0.70
2023-01-21T19:51:32.249Z,0.70
2023-01-21T19:54:12.067Z,0.80
2023-01-21T19:56:46.607Z,0.80
2023-01-21T19:59:20.700Z,0.80
2023-01-21T20:01:53.353Z,0.80
2023-01-21T20:04:26.288Z,0.70
2023-01-21T20:06:54.520Z,0.70
2023-01-21T20:09:22.633Z,0.90
2023-01-21T20:11:50.323Z,0.80
2023-01-21T20:14:18.336Z,0.80
2023-01-21T20:16:55.088Z,0.70
2023-01-21T20:19:23.667Z,0.70
2023-01-21T20:22:02.058Z,0.70
2023-01-21T20:24:34.191Z,0.70
2023-01-21T20:27:09.561Z,0.70
2023-01-21T20:29:55.579Z,0.70
2023-01-21T20:32:40.800Z,0.60
2023-01-21T20:35:22.017Z,0.60
2023-01-21T20:37:57.249Z,0.50
2023-01-21T20:40:32.119Z,0.60
2023-01-21T20:43:01.110Z,0.60
2023-01-21T20:45:44.118Z,0.50
2023-01-21T20:48:33.120Z,0.60
2023-01-21T20:51:03.997Z,0.50
2023-01-21T20:53:34.435Z,0.50
2023-01-21T20:56:42.113Z,0.40
2023-01-21T20:59:11.671Z,0.50
2023-01-21T21:01:41.905Z,0.50
2023-01-21T21:04:11.272Z,0.40
2023-01-21T21:06:41.111Z,0.30
2023-01-21T21:09:14.798Z,0.30
2023-01-21T21:11:45.956Z,0.40
2023-01-21T21:14:18.433Z,0.40
2023-01-21T21:16:48.335Z,0.40
2023-01-21T21:19:18.566Z,0.40
2023-01-21T21:21:53.209Z,0.50
2023-01-21T21:24:26.575Z,0.60
2023-01-21T21:26:55.162Z,0.70
2023-01-21T21:29:23.594Z,0.70
2023-01-21T21:31:52.346Z,0.70
2023-01-21T21:34:41.181Z,0.70
2023-01-21T21:37:22.863Z,0.70
2023-01-21T21:40:14.729Z,0.70
2023-01-21T21:43:08.880Z,0.70
2023-01-21T21:45:41.175Z,0.80
2023-01-21T21:48:45.311Z,0.80
2023-01-21T21:51:18.115Z,0.70
2023-01-21T21:53:49.435Z,0.70
2023-01-21T21:56:23.964Z,0.60
2023-01-21T21:58:53.799Z,0.60
2023-01-21T22:01:30.495Z,0.50
2023-01-21T22:04:04.808Z,0.40
2023-01-21T22:06:37.358Z,0.30
2023-01-21T22:09:07.625Z,0.30
2023-01-21T22:11:47.028Z,0.30
2023-01-21T22:14:19.211Z,0.20
2023-01-21T22:16:56.255Z,0.30
2023-01-21T22:19:27.635Z,0.20
2023-01-21T22:22:06.272Z,0.10
2023-01-21T22:24:35.727Z,0.00
2023-01-21T22:27:09.574Z,-0.10
2023-01-21T22:29:38.123Z,-0.10
2023-01-21T22:32:08.244Z,-0.10
2023-01-21T22:34:37.705Z,-0.20
2023-01-21T22:37:06.983Z,-0.30
2023-01-21T22:39:36.003Z,-0.20
2023-01-21T22:42:10.909Z,-0.20
2023-01-21T22:44:39.987Z,-0.20
2023-01-21T22:47:09.945Z,-0.20
2023-01-21T22:49:40.771Z,-0.20
2023-01-21T22:52:10.061Z,-0.20
2023-01-21T22:54:38.555Z,-0.30
2023-01-21T22:57:07.931Z,-0.20
2023-01-21T22:59:37.436Z,-0.30
2023-01-21T23:02:25.968Z,-0.20
2023-01-21T23:04:58.851Z,-0.20
2023-01-21T23:07:38.936Z,-0.10
2023-01-21T23:10:12.567Z,-0.10
2023-01-21T23:12:49.506Z,0.10
2023-01-21T23:15:24.783Z,0.20
2023-01-21T23:17:55.188Z,0.30
2023-01-21T23:20:29.464Z,0.30
2023-01-21T23:22:59.531Z,0.30
2023-01-21T23:25:33.603Z,0.40
2023-01-21T23:28:04.301Z,0.40
2023-01-21T23:30:36.780Z,0.40
2023-01-21T23:33:08.014Z,0.40
2023-01-21T23:35:40.313Z,0.40
2023-01-21T23:38:10.035Z,0.50
2023-01-21T23:40:40.555Z,0.70
2023-01-21T23:43:09.514Z,0.80
2023-01-21T23:45:40.579Z,1.10
2023-01-21T23:48:09.210Z,1.10
2023-01-21T23:50:37.165Z,1.10
2023-01-21T23:53:10.776Z,1.00
2023-01-21T23:55:38.689Z,0.80
2023-01-21T23:58:06.421Z,0.90
